createdAt,value
2017-02-16T00:01:28.383Z,39.1
2017-02-16T00:04:01.023Z,39.1
2017-02-16T00:06:33.668Z,39.1
2017-02-16T00:09:06.349Z,38.9
2017-02-16T00:11:39.423Z,38.9
2017-02-16T00:14:12.052Z,38.8
2017-02-16T00:16:45.569Z,38.8
2017-02-16T00:19:18.623Z,38.8
2017-02-16T00:21:51.292Z,38.7
2017-02-16T00:24:23.934Z,38.8
2017-02-16T00:26:56.582Z,38.7
2017-02-16T00:29:29.242Z,38.7
2017-02-16T00:32:01.887Z,38.7
2017-02-16T00:34:34.932Z,38.6
2017-02-16T00:37:08.429Z,38.6
2017-02-16T00:39:41.710Z,38.7
2017-02-16T00:42:14.363Z,38.6
2017-02-16T00:44:46.993Z,38.6
2017-02-16T00:47:20.038Z,38.6
2017-02-16T00:49:52.675Z,38.6
2017-02-16T00:52:25.297Z,38.6
2017-02-16T00:54:57.924Z,38.6
2017-02-16T00:57:30.556Z,38.6
2017-02-16T01:00:03.624Z,38.6
2017-02-16T01:02:36.701Z,38.7
2017-02-16T01:05:09.822Z,38.6
2017-02-16T01:07:42.454Z,38.6
2017-02-16T01:10:15.577Z,38.7
2017-02-16T01:12:48.612Z,38.7
2017-02-16T01:15:21.679Z,38.7
2017-02-16T01:17:54.332Z,38.8
2017-02-16T01:20:26.990Z,38.7
2017-02-16T01:22:59.624Z,38.8
2017-02-16T01:25:32.282Z,38.8
2017-02-16T01:28:05.344Z,38.8
2017-02-16T01:30:38.414Z,38.8
2017-02-16T01:33:11.469Z,38.8
2017-02-16T01:35:44.128Z,38.8
2017-02-16T01:38:17.612Z,38.7
2017-02-16T01:40:50.276Z,38.7
2017-02-16T01:43:22.922Z,38.8
2017-02-16T01:45:55.977Z,38.8
2017-02-16T01:48:29.042Z,38.8
2017-02-16T01:51:02.309Z,38.8
2017-02-16T01:53:34.955Z,38.8
2017-02-16T01:56:07.590Z,38.8
2017-02-16T01:58:40.214Z,38.8
2017-02-16T02:01:12.847Z,38.8
2017-02-16T02:03:45.889Z,38.7
2017-02-16T02:06:18.510Z,38.7
2017-02-16T02:08:51.559Z,38.7
2017-02-16T02:11:24.187Z,38.7
2017-02-16T02:13:56.821Z,38.7
2017-02-16T02:16:29.458Z,38.7
2017-02-16T02:19:02.515Z,38.7
2017-02-16T02:21:35.188Z,38.8
2017-02-16T02:24:07.821Z,38.8
2017-02-16T02:26:40.652Z,38.8
2017-02-16T02:29:13.271Z,38.8
2017-02-16T02:31:45.896Z,38.8
2017-02-16T02:34:18.526Z,38.8
2017-02-16T02:36:51.140Z,38.8
2017-02-16T02:39:23.762Z,38.9
2017-02-16T02:41:56.384Z,38.8
2017-02-16T02:44:29.459Z,38.8
2017-02-16T02:47:02.946Z,38.8
2017-02-16T02:49:35.573Z,38.8
2017-02-16T02:52:08.195Z,38.8
2017-02-16T02:54:40.881Z,38.8
2017-02-16T02:57:13.949Z,38.8
2017-02-16T02:59:46.575Z,38.8
2017-02-16T03:02:19.220Z,38.9
2017-02-16T03:04:52.280Z,38.9
2017-02-16T03:07:24.918Z,38.9
2017-02-16T03:09:57.971Z,39
2017-02-16T03:12:31.447Z,39
2017-02-16T03:15:04.095Z,39
2017-02-16T03:17:36.729Z,38.9
2017-02-16T03:20:09.365Z,39
2017-02-16T03:22:41.978Z,39
2017-02-16T03:25:14.631Z,39
2017-02-16T03:27:47.262Z,39
2017-02-16T03:30:20.305Z,39
2017-02-16T03:32:53.344Z,39
2017-02-16T03:35:26.406Z,39
2017-02-16T03:37:59.063Z,39
2017-02-16T03:40:31.718Z,39
2017-02-16T03:43:04.365Z,39
2017-02-16T03:45:37.424Z,39
2017-02-16T03:48:10.075Z,39
2017-02-16T03:50:42.718Z,39
2017-02-16T03:53:15.783Z,39
2017-02-16T03:55:48.846Z,39.1
2017-02-16T03:58:21.478Z,39
2017-02-16T04:00:54.120Z,39.1
2017-02-16T04:03:26.745Z,39.1
2017-02-16T04:05:59.799Z,39.1
2017-02-16T04:08:32.862Z,39.1
2017-02-16T04:11:05.954Z,39.1
2017-02-16T04:13:39.039Z,39.1
2017-02-16T04:16:11.687Z,39.1
2017-02-16T04:18:44.754Z,39.1
2017-02-16T04:21:17.838Z,39.1
2017-02-16T04:23:50.484Z,39.1
2017-02-16T04:26:23.559Z,39.1
2017-02-16T04:28:56.648Z,39.1
2017-02-16T04:31:29.278Z,39.1
2017-02-16T04:34:02.751Z,39.1
2017-02-16T04:36:35.398Z,39.2
2017-02-16T04:39:08.033Z,39.2
2017-02-16T04:41:40.679Z,39.2
2017-02-16T04:44:13.316Z,39.2
2017-02-16T04:46:45.974Z,39.2
2017-02-16T04:49:18.636Z,39.2
2017-02-16T04:51:51.278Z,39.3
2017-02-16T04:54:23.939Z,39.2
2017-02-16T04:56:57.021Z,39.2
2017-02-16T04:59:29.667Z,39.2
2017-02-16T05:02:02.940Z,39.2
2017-02-16T05:04:35.580Z,39.2
2017-02-16T05:07:08.232Z,39.2
2017-02-16T05:09:41.042Z,39.2
2017-02-16T05:12:14.530Z,39.2
2017-02-16T05:14:47.166Z,39.2
2017-02-16T05:17:20.212Z,39.2
2017-02-16T05:19:52.823Z,39.2
2017-02-16T05:22:25.441Z,39.2
2017-02-16T05:24:58.492Z,39.2
2017-02-16T05:27:31.574Z,39.2
2017-02-16T05:30:04.218Z,39.3
2017-02-16T05:32:36.875Z,39.2
2017-02-16T05:35:09.961Z,39.3
2017-02-16T05:37:42.565Z,39.3
2017-02-16T05:40:15.192Z,39.2
2017-02-16T05:42:48.297Z,39.3
2017-02-16T05:45:20.967Z,39.3
2017-02-16T05:47:53.591Z,39.3
2017-02-16T05:50:26.244Z,39.4
2017-02-16T05:52:59.317Z,39.4
2017-02-16T05:55:32.375Z,39.4
2017-02-16T05:58:05.005Z,39.4
2017-02-16T06:00:37.638Z,39.4
2017-02-16T06:03:10.288Z,39.5
2017-02-16T06:05:42.921Z,39.4
2017-02-16T06:08:15.554Z,39.5
2017-02-16T06:10:48.200Z,39.4
2017-02-16T06:13:20.863Z,39.4
2017-02-16T06:15:53.513Z,39.4
2017-02-16T06:18:26.141Z,39.4
2017-02-16T06:20:58.765Z,39.4
2017-02-16T06:23:31.400Z,39.4
2017-02-16T06:26:04.682Z,39.4
2017-02-16T06:28:37.337Z,39.4
2017-02-16T06:31:10.389Z,39.4
2017-02-16T06:33:43.034Z,39.4
2017-02-16T06:36:16.098Z,39.3
2017-02-16T06:38:49.154Z,39.4
2017-02-16T06:41:21.779Z,39.4
2017-02-16T06:43:54.880Z,39.4
2017-02-16T06:46:27.555Z,39.4
2017-02-16T06:49:00.634Z,39.4
2017-02-16T06:51:33.745Z,39.4
2017-02-16T06:54:06.367Z,39.5
2017-02-16T06:56:39.021Z,39.4
2017-02-16T06:59:11.633Z,39.5
2017-02-16T07:01:44.724Z,39.4
2017-02-16T07:04:17.356Z,39.5
2017-02-16T07:06:50.005Z,39.4
2017-02-16T07:09:23.081Z,39.4
2017-02-16T07:11:55.702Z,39.4
2017-02-16T07:14:28.354Z,39.5
2017-02-16T07:17:01.430Z,39.5
2017-02-16T07:19:34.489Z,39.5
2017-02-16T07:22:07.138Z,39.6
2017-02-16T07:24:40.206Z,39.5
2017-02-16T07:27:13.257Z,39.6
2017-02-16T07:29:45.870Z,39.5
2017-02-16T07:32:19.343Z,39.5
2017-02-16T07:34:51.984Z,39.6
2017-02-16T07:37:24.628Z,39.5
2017-02-16T07:39:57.723Z,39.5
2017-02-16T07:42:30.351Z,39.5
2017-02-16T07:45:03.016Z,39.5
2017-02-16T07:47:36.226Z,39.7
2017-02-16T07:50:08.950Z,39.7
2017-02-16T07:52:41.631Z,39.6
2017-02-16T07:55:14.417Z,39.9
2017-02-16T07:57:47.933Z,38.1
2017-02-16T08:00:21.059Z,38.9
2017-02-16T08:02:53.811Z,39.1
2017-02-16T08:05:26.635Z,39.2
2017-02-16T08:07:59.296Z,39.3
2017-02-16T08:10:32.401Z,38.8
2017-02-16T08:13:05.065Z,38.8
2017-02-16T08:15:37.735Z,39.1
2017-02-16T08:18:10.443Z,39.3
2017-02-16T08:20:43.749Z,39.4
2017-02-16T08:23:16.448Z,39.4
2017-02-16T08:25:49.089Z,38.9
2017-02-16T08:28:22.182Z,39.2
2017-02-16T08:30:55.255Z,39.5
2017-02-16T08:33:28.257Z,39.7
2017-02-16T08:36:00.935Z,39.8
2017-02-16T08:38:33.659Z,39.9
2017-02-16T08:41:06.313Z,40
2017-02-16T08:43:38.992Z,40.1
2017-02-16T08:46:11.655Z,40.1
2017-02-16T08:48:44.783Z,40.1
2017-02-16T08:51:17.550Z,40.1
2017-02-16T08:53:50.818Z,40.2
2017-02-16T08:56:25.849Z,40.1
2017-02-16T08:58:58.930Z,39.8
2017-02-16T09:01:31.679Z,39.5
2017-02-16T09:04:04.446Z,39.1
2017-02-16T09:06:37.573Z,38.9
2017-02-16T09:09:10.252Z,39.3
2017-02-16T09:11:43.358Z,39.5
2017-02-16T09:14:16.489Z,39.6
2017-02-16T09:16:49.174Z,39.7
2017-02-16T09:19:21.808Z,39.6
2017-02-16T09:21:54.509Z,39.6
2017-02-16T09:24:27.194Z,39.6
2017-02-16T09:27:00.010Z,39.7
2017-02-16T09:29:33.114Z,39.7
2017-02-16T09:32:05.924Z,39.8
2017-02-16T09:34:39.321Z,39.9
2017-02-16T09:37:12.037Z,39.9
2017-02-16T09:39:44.713Z,40
2017-02-16T09:42:17.445Z,40.2
2017-02-16T09:44:50.475Z,40.4
2017-02-16T09:47:23.545Z,40.3
2017-02-16T09:49:56.384Z,40.3
2017-02-16T09:52:29.302Z,40.5
2017-02-16T09:55:01.996Z,40.4
2017-02-16T09:57:34.699Z,40.6
2017-02-16T10:00:07.368Z,40.6
2017-02-16T10:02:40.092Z,40.7
2017-02-16T10:05:13.353Z,40.8
2017-02-16T10:07:46.008Z,40.9
2017-02-16T10:10:18.762Z,40.9
2017-02-16T10:12:51.421Z,41
2017-02-16T10:15:24.039Z,40.9
2017-02-16T10:17:57.552Z,41
2017-02-16T10:20:30.717Z,41
2017-02-16T10:23:10.734Z,41.1
2017-02-16T10:25:43.864Z,41.1
2017-02-16T10:28:16.644Z,41.1
2017-02-16T10:30:49.741Z,41.2
2017-02-16T10:33:22.459Z,41.2
2017-02-16T10:35:55.125Z,41.3
2017-02-16T10:38:28.170Z,41.3
2017-02-16T10:41:00.836Z,41.3
2017-02-16T10:43:33.622Z,41.3
2017-02-16T10:46:06.712Z,41.4
2017-02-16T10:48:39.362Z,41.4
2017-02-16T10:51:12.258Z,41.5
2017-02-16T10:53:45.694Z,41.5
2017-02-16T10:56:18.413Z,41.5
2017-02-16T10:58:51.106Z,41.8
2017-02-16T11:01:24.636Z,41.6
2017-02-16T11:03:57.278Z,41.6
2017-02-16T11:06:30.561Z,41.5
2017-02-16T11:09:03.211Z,41.5
2017-02-16T11:11:35.878Z,41.5
2017-02-16T11:14:09.163Z,41.5
2017-02-16T11:16:41.947Z,41.5
2017-02-16T11:19:14.622Z,41.4
2017-02-16T11:21:47.701Z,41.4
2017-02-16T11:24:20.786Z,41.4
2017-02-16T11:26:53.450Z,41.4
2017-02-16T11:29:26.542Z,41.4
2017-02-16T11:31:59.220Z,41.4
2017-02-16T11:34:32.614Z,41.5
2017-02-16T11:37:05.248Z,41.5
2017-02-16T11:39:38.346Z,41.5
2017-02-16T11:42:10.985Z,41.5
2017-02-16T11:44:43.615Z,41.5
2017-02-16T11:47:16.238Z,41.4
2017-02-16T11:49:49.614Z,41.4
2017-02-16T11:52:22.264Z,41.3
2017-02-16T11:54:55.327Z,41.3
2017-02-16T11:57:28.415Z,41.3
2017-02-16T12:00:01.047Z,41.2
2017-02-16T12:02:33.701Z,41.2
2017-02-16T12:05:06.367Z,41.2
2017-02-16T12:07:39.015Z,41.1
2017-02-16T12:10:11.637Z,41.1
2017-02-16T12:12:44.712Z,41.1
2017-02-16T12:15:18.175Z,41.1
2017-02-16T12:17:51.244Z,41
2017-02-16T12:20:24.406Z,41.1
2017-02-16T12:22:57.498Z,41
2017-02-16T12:25:30.139Z,41
2017-02-16T12:28:02.751Z,41
2017-02-16T12:30:35.392Z,41
2017-02-16T12:33:08.313Z,41.1
2017-02-16T12:35:40.992Z,41.1
2017-02-16T12:38:14.067Z,41.1
2017-02-16T12:40:46.700Z,41.1
2017-02-16T12:43:19.347Z,41.1
2017-02-16T12:45:52.416Z,41.1
2017-02-16T12:48:25.067Z,41.1
2017-02-16T12:50:57.732Z,41.1
2017-02-16T12:53:30.384Z,41.2
2017-02-16T12:56:03.428Z,41.2
2017-02-16T12:58:36.913Z,41.2
2017-02-16T13:01:09.549Z,41.2
2017-02-16T13:03:42.204Z,41.2
2017-02-16T13:06:15.298Z,41.2
2017-02-16T13:08:47.925Z,41.3
2017-02-16T13:11:20.574Z,41.3
2017-02-16T13:13:53.192Z,41.2
2017-02-16T13:16:26.474Z,41.3
2017-02-16T13:18:59.930Z,41.2
2017-02-16T13:21:32.565Z,41.2
2017-02-16T13:24:05.166Z,41.3
2017-02-16T13:26:37.812Z,41.3
2017-02-16T13:29:10.467Z,41.3
2017-02-16T13:31:43.534Z,41.2
2017-02-16T13:34:16.889Z,41.2
2017-02-16T13:36:50.593Z,41.3
2017-02-16T13:39:24.089Z,41.3
2017-02-16T13:41:56.761Z,41.3
2017-02-16T13:44:29.829Z,41.3
2017-02-16T13:47:02.853Z,41.3
2017-02-16T13:49:35.469Z,41.3
2017-02-16T13:52:08.532Z,41.2
2017-02-16T13:54:41.168Z,41.2
2017-02-16T13:57:14.636Z,41.3
2017-02-16T13:59:48.137Z,41.3
2017-02-16T14:02:20.766Z,41.3
2017-02-16T14:04:53.799Z,41.3
2017-02-16T14:07:26.404Z,41.2
2017-02-16T14:09:59.433Z,41.3
2017-02-16T14:12:32.073Z,41.3
2017-02-16T14:15:04.726Z,41.3
2017-02-16T14:17:37.771Z,41.3
2017-02-16T14:20:10.391Z,41.3
2017-02-16T14:22:44.269Z,41.3
2017-02-16T14:30:31.195Z,41.1
2017-02-16T14:33:03.769Z,41.2
2017-02-16T14:35:36.300Z,41.3
2017-02-16T14:38:09.266Z,41.4
2017-02-16T14:40:41.785Z,41.4
2017-02-16T14:43:14.334Z,41.3
2017-02-16T14:45:47.312Z,41.4
2017-02-16T14:48:20.268Z,41.3
2017-02-16T14:50:52.816Z,41.4
2017-02-16T14:53:25.341Z,41.3
2017-02-16T14:55:58.332Z,41.4
2017-02-16T14:58:30.859Z,41.4
2017-02-16T15:01:03.843Z,41.3
2017-02-16T15:03:36.793Z,41.3
2017-02-16T15:06:09.351Z,41.3
2017-02-16T15:08:42.764Z,41.4
2017-02-16T15:11:15.308Z,41.4
2017-02-16T15:13:48.267Z,41.4
2017-02-16T15:16:20.810Z,41.4
2017-02-16T15:18:53.328Z,41.4
2017-02-16T15:21:25.873Z,41.4
2017-02-16T15:23:58.427Z,41.3
2017-02-16T15:26:31.086Z,41
2017-02-16T15:29:03.693Z,40.9
2017-02-16T15:31:36.272Z,41.2
2017-02-16T15:34:09.322Z,41
2017-02-16T15:36:42.376Z,41.1
2017-02-16T15:39:15.331Z,41.3
2017-02-16T15:41:47.919Z,41.1
2017-02-16T15:44:20.603Z,41
2017-02-16T15:46:53.513Z,41
2017-02-16T15:49:26.068Z,41.2
2017-02-16T15:51:59.325Z,41.8
2017-02-16T15:54:32.531Z,41.9
2017-02-16T15:57:05.247Z,41.9
2017-02-16T15:59:37.828Z,41.9
2017-02-16T16:02:10.753Z,41.8
2017-02-16T16:04:44.159Z,41.8
2017-02-16T16:07:17.194Z,41.8
2017-02-16T16:09:49.909Z,41.7
2017-02-16T16:12:22.522Z,41.7
2017-02-16T16:14:55.135Z,41.7
2017-02-16T16:17:27.784Z,41.7
2017-02-16T16:20:00.712Z,41.7
2017-02-16T16:22:33.510Z,41.6
2017-02-16T16:25:06.749Z,41.7
2017-02-16T16:27:39.796Z,41.7
2017-02-16T16:30:12.417Z,41.7
2017-02-16T16:32:44.950Z,41.6
2017-02-16T16:35:17.523Z,41.5
2017-02-16T16:37:50.223Z,41.5
2017-02-16T16:40:23.656Z,41.6
2017-02-16T16:42:56.234Z,41.6
2017-02-16T16:45:28.885Z,41.6
2017-02-16T16:48:01.466Z,41.6
2017-02-16T16:50:34.267Z,41.6
2017-02-16T16:53:07.333Z,42
2017-02-16T16:55:40.335Z,42.2
2017-02-16T16:58:12.950Z,42.4
2017-02-16T17:00:45.967Z,42.4
2017-02-16T17:03:19.192Z,42.4
2017-02-16T17:05:51.771Z,42.4
2017-02-16T17:08:24.319Z,42.4
2017-02-16T17:10:57.323Z,42.3
2017-02-16T17:13:30.067Z,42.3
2017-02-16T17:16:02.732Z,42.2
2017-02-16T17:18:35.632Z,42.1
2017-02-16T17:21:08.258Z,42.1
2017-02-16T17:23:41.755Z,42.1
2017-02-16T17:26:15.226Z,42.1
2017-02-16T17:28:47.765Z,42
2017-02-16T17:31:20.340Z,42
2017-02-16T17:33:52.880Z,42
2017-02-16T17:36:25.440Z,42
2017-02-16T17:38:58.309Z,42
2017-02-16T17:41:31.266Z,42
2017-02-16T17:44:04.579Z,42
2017-02-16T17:46:37.551Z,42
2017-02-16T17:49:10.133Z,42
2017-02-16T17:51:43.313Z,42.1
2017-02-16T17:54:15.878Z,42.1
2017-02-16T17:56:49.718Z,42.1
2017-02-16T17:59:22.873Z,42.1
2017-02-16T18:01:55.430Z,42.1
2017-02-16T18:04:28.414Z,42.2
2017-02-16T18:07:01.026Z,42.2
2017-02-16T18:09:34.167Z,42.1
2017-02-16T18:12:06.844Z,42
2017-02-16T18:14:39.816Z,42
2017-02-16T18:17:12.460Z,41.9
2017-02-16T18:19:45.091Z,41.9
2017-02-16T18:22:17.637Z,41.9
2017-02-16T18:24:50.640Z,41.9
2017-02-16T18:27:23.631Z,41.9
2017-02-16T18:29:56.250Z,41.9
2017-02-16T18:32:28.800Z,41.9
2017-02-16T18:35:01.409Z,41.9
2017-02-16T18:37:34.377Z,42
2017-02-16T18:40:07.243Z,42
2017-02-16T18:42:40.692Z,42.1
2017-02-16T18:45:14.211Z,42.1
2017-02-16T18:47:47.193Z,42.2
2017-02-16T18:50:19.848Z,42.3
2017-02-16T18:52:52.435Z,42.3
2017-02-16T18:55:24.997Z,42.4
2017-02-16T18:57:57.633Z,42.4
2017-02-16T19:00:30.647Z,42.4
2017-02-16T19:03:03.251Z,42.5
2017-02-16T19:05:36.654Z,42.5
2017-02-16T19:08:09.235Z,42.4
2017-02-16T19:10:41.792Z,42.3
2017-02-16T19:13:14.355Z,42.1
2017-02-16T19:15:46.934Z,42.1
2017-02-16T19:18:19.494Z,42.2
2017-02-16T19:20:52.685Z,42.2
2017-02-16T19:23:25.690Z,42.2
2017-02-16T19:25:58.246Z,42.1
2017-02-16T19:28:30.813Z,42.1
2017-02-16T19:31:03.356Z,42.1
2017-02-16T19:33:35.903Z,42.1
2017-02-16T19:36:08.454Z,42.1
2017-02-16T19:38:41.835Z,42.1
2017-02-16T19:41:14.402Z,42.1
2017-02-16T19:43:46.943Z,42.1
2017-02-16T19:46:19.913Z,42.1
2017-02-16T19:48:52.882Z,42.1
2017-02-16T19:51:25.983Z,42.1
2017-02-16T19:53:58.515Z,42.1
2017-02-16T19:56:31.047Z,42.1
2017-02-16T19:59:04.221Z,42.2
2017-02-16T20:01:36.791Z,42.2
2017-02-16T20:04:09.893Z,42.2
2017-02-16T20:06:42.434Z,42.2
2017-02-16T20:09:14.990Z,42.5
2017-02-16T20:11:47.558Z,42.7
2017-02-16T20:14:20.138Z,42.7
2017-02-16T20:16:53.597Z,42.8
2017-02-16T20:19:26.143Z,43.1
2017-02-16T20:21:59.122Z,43.3
2017-02-16T20:24:31.689Z,43.2
2017-02-16T20:27:04.697Z,43.4
2017-02-16T20:29:37.240Z,43.3
2017-02-16T20:32:09.752Z,43.2
2017-02-16T20:34:42.300Z,43.3
2017-02-16T20:37:15.277Z,43.1
2017-02-16T20:39:48.252Z,43.2
2017-02-16T20:42:22.122Z,43.2
2017-02-16T20:44:54.869Z,43.2
2017-02-16T20:47:27.855Z,43.2
2017-02-16T20:50:00.428Z,43.4
2017-02-16T20:52:32.969Z,43.2
2017-02-16T20:55:05.921Z,43.3
2017-02-16T20:57:38.487Z,43.3
2017-02-16T21:00:11.111Z,43.3
2017-02-16T21:02:43.645Z,43.3
2017-02-16T21:05:16.613Z,43.4
2017-02-16T21:07:49.177Z,43.4
2017-02-16T21:10:22.127Z,43.4
2017-02-16T21:12:55.106Z,43.4
2017-02-16T21:15:27.687Z,43.4
2017-02-16T21:18:00.273Z,43.5
2017-02-16T21:20:32.836Z,43.5
2017-02-16T21:23:05.366Z,43.5
2017-02-16T21:25:38.421Z,43.5
2017-02-16T21:28:10.982Z,43.5
2017-02-16T21:30:43.514Z,43.6
2017-02-16T21:33:16.096Z,43.6
2017-02-16T21:35:49.040Z,43.6
2017-02-16T21:38:21.994Z,43.6
2017-02-16T21:40:54.528Z,43.7
2017-02-16T21:43:27.068Z,43.6
2017-02-16T21:46:00.211Z,43.5
2017-02-16T21:48:32.756Z,43.5
2017-02-16T21:51:05.315Z,43.4
2017-02-16T21:53:37.852Z,43.4
2017-02-16T21:56:10.906Z,43.4
2017-02-16T21:58:43.433Z,43.4
2017-02-16T22:01:15.973Z,43.4
2017-02-16T22:03:48.542Z,43.4
2017-02-16T22:06:21.112Z,43.4
2017-02-16T22:08:53.689Z,43.4
2017-02-16T22:11:26.316Z,43.4
2017-02-16T22:13:59.298Z,43.4
2017-02-16T22:16:31.864Z,43.4
2017-02-16T22:19:04.399Z,43.4
2017-02-16T22:21:36.987Z,43.5
2017-02-16T22:24:09.525Z,43.5
2017-02-16T22:26:43.327Z,43.6
2017-02-16T22:29:16.308Z,43.7
2017-02-16T22:31:48.835Z,43.7
2017-02-16T22:34:21.510Z,43.8
2017-02-16T22:36:54.612Z,43.7
2017-02-16T22:39:27.279Z,43.7
2017-02-16T22:41:59.871Z,43.6
2017-02-16T22:44:33.409Z,43.6
2017-02-16T22:47:05.960Z,43.5
2017-02-16T22:49:39.018Z,43.4
2017-02-16T22:52:12.095Z,43.4
2017-02-16T22:54:45.032Z,43.4
2017-02-16T22:57:17.572Z,43.4
2017-02-16T22:59:50.144Z,43.7
2017-02-16T23:02:23.104Z,43.7
2017-02-16T23:04:56.124Z,43.8
2017-02-16T23:07:29.583Z,43.8
2017-02-16T23:10:02.540Z,43.9
2017-02-16T23:12:35.120Z,44
2017-02-16T23:15:08.519Z,43.9
2017-02-16T23:17:41.108Z,43.8
2017-02-16T23:20:14.067Z,43.9
2017-02-16T23:22:47.017Z,43.9
2017-02-16T23:25:19.560Z,43.9
2017-02-16T23:27:52.124Z,43.9
2017-02-16T23:30:24.651Z,43.9
2017-02-16T23:32:57.608Z,43.9
2017-02-16T23:35:30.325Z,43.9
2017-02-16T23:38:02.943Z,43.9
2017-02-16T23:40:35.461Z,43.9
2017-02-16T23:43:08.323Z,44
2017-02-16T23:45:40.863Z,43.9
2017-02-16T23:48:14.441Z,43.9
2017-02-16T23:50:47.101Z,44
2017-02-16T23:53:19.867Z,43.9
2017-02-16T23:55:52.600Z,43.9
2017-02-16T23:58:25.604Z,44
